LFKJ/AJA METAR and TAF weather

Enter ICAO airport designator
Station Type Date Time Source
LFKJ METAR 2019/08/19 22:30 UTC NOAA

LFKJ 192230Z AUTO VRB03KT CAVOK 21/14 Q1017 NOSIG


Station Type Date Time Source
LFKJ Decoded METAR 2019/08/19 22:30 UTC NOAA

Ajaccio, France (LFKJ) 41-55N 008-48E 9M
Aug 19, 2019 - 06:30 PM EDT / 2019.08.19 2230 UTC
Wind: Variable at 3 MPH (3 KT):0
Visibility: greater than 7 mile(s):0
Temperature: 69 F (21 C)
Dew Point: 57 F (14 C)
Relative Humidity: 64%
Pressure (altimeter): 30.03 in. Hg (1017 hPa)
ob: LFKJ 192230Z AUTO VRB03KT CAVOK 21/14 Q1017 NOSIG
cycle: 22

Station Type Date Time Source
LFKJ TAF 2019/08/19 21:26 UTC NOAA

TAF LFKJ 192000Z 1921/2021 05004KT CAVOK
BECMG 2008/2010 23010KT
BECMG 2019/2020 04005KT

Example: see airport list